sensor_id;sensor_type;location;lat;lon;timestamp;P1;durP1;ratioP1;P2;durP2;ratioP2
10481;SDS011;5288;42.334;23.876;2023-09-19T00:00:56;8.27;;;6.17;;
10481;SDS011;5288;42.334;23.876;2023-09-19T00:03:23;7.27;;;5.67;;
10481;SDS011;5288;42.334;23.876;2023-09-19T00:05:52;5.80;;;5.20;;
10481;SDS011;5288;42.334;23.876;2023-09-19T00:08:20;6.27;;;5.67;;
10481;SDS011;5288;42.334;23.876;2023-09-19T00:10:50;5.23;;;4.77;;
10481;SDS011;5288;42.334;23.876;2023-09-19T00:13:18;8.20;;;5.00;;
10481;SDS011;5288;42.334;23.876;2023-09-19T00:15:46;5.63;;;5.13;;
10481;SDS011;5288;42.334;23.876;2023-09-19T00:18:15;7.93;;;5.13;;
10481;SDS011;5288;42.334;23.876;2023-09-19T00:20:44;6.07;;;4.97;;
10481;SDS011;5288;42.334;23.876;2023-09-19T00:23:14;5.83;;;5.30;;
10481;SDS011;5288;42.334;23.876;2023-09-19T00:25:41;6.80;;;5.53;;
10481;SDS011;5288;42.334;23.876;2023-09-19T00:28:08;5.70;;;5.10;;
10481;SDS011;5288;42.334;23.876;2023-09-19T00:30:35;6.40;;;5.03;;
10481;SDS011;5288;42.334;23.876;2023-09-19T00:33:04;6.97;;;5.43;;
10481;SDS011;5288;42.334;23.876;2023-09-19T00:35:33;5.90;;;5.10;;
10481;SDS011;5288;42.334;23.876;2023-09-19T00:38:00;8.43;;;5.20;;
10481;SDS011;5288;42.334;23.876;2023-09-19T00:40:28;5.73;;;4.93;;
10481;SDS011;5288;42.334;23.876;2023-09-19T00:42:58;7.27;;;5.20;;
10481;SDS011;5288;42.334;23.876;2023-09-19T00:45:26;6.13;;;5.33;;
10481;SDS011;5288;42.334;23.876;2023-09-19T00:47:53;6.53;;;5.23;;
10481;SDS011;5288;42.334;23.876;2023-09-19T00:50:22;6.50;;;5.83;;
10481;SDS011;5288;42.334;23.876;2023-09-19T00:52:54;7.27;;;5.03;;
10481;SDS011;5288;42.334;23.876;2023-09-19T00:55:22;6.20;;;5.63;;
10481;SDS011;5288;42.334;23.876;2023-09-19T00:57:52;7.10;;;5.50;;
10481;SDS011;5288;42.334;23.876;2023-09-19T01:00:21;5.57;;;4.80;;
10481;SDS011;5288;42.334;23.876;2023-09-19T01:02:49;6.00;;;4.77;;
10481;SDS011;5288;42.334;23.876;2023-09-19T01:05:16;7.30;;;5.50;;
10481;SDS011;5288;42.334;23.876;2023-09-19T01:07:43;5.57;;;5.07;;
10481;SDS011;5288;42.334;23.876;2023-09-19T01:10:11;7.73;;;5.87;;
10481;SDS011;5288;42.334;23.876;2023-09-19T01:12:45;5.93;;;4.87;;
10481;SDS011;5288;42.334;23.876;2023-09-19T01:15:25;9.67;;;5.00;;
10481;SDS011;5288;42.334;23.876;2023-09-19T01:18:10;6.03;;;5.43;;
10481;SDS011;5288;42.334;23.876;2023-09-19T01:20:50;5.87;;;5.17;;
10481;SDS011;5288;42.334;23.876;2023-09-19T01:23:25;5.17;;;4.67;;
10481;SDS011;5288;42.334;23.876;2023-09-19T01:26:07;5.80;;;4.90;;
10481;SDS011;5288;42.334;23.876;2023-09-19T01:28:53;8.67;;;5.17;;
10481;SDS011;5288;42.334;23.876;2023-09-19T01:31:31;6.70;;;5.10;;
10481;SDS011;5288;42.334;23.876;2023-09-19T01:34:04;5.50;;;5.00;;
10481;SDS011;5288;42.334;23.876;2023-09-19T01:36:33;5.97;;;5.37;;
10481;SDS011;5288;42.334;23.876;2023-09-19T01:39:05;7.87;;;5.30;;
10481;SDS011;5288;42.334;23.876;2023-09-19T01:41:44;7.13;;;5.03;;
10481;SDS011;5288;42.334;23.876;2023-09-19T01:44:19;5.97;;;5.37;;
10481;SDS011;5288;42.334;23.876;2023-09-19T01:46:52;5.50;;;4.73;;
10481;SDS011;5288;42.334;23.876;2023-09-19T01:49:27;5.60;;;4.43;;
10481;SDS011;5288;42.334;23.876;2023-09-19T01:52:02;6.07;;;4.50;;
10481;SDS011;5288;42.334;23.876;2023-09-19T01:54:40;6.00;;;4.77;;
10481;SDS011;5288;42.334;23.876;2023-09-19T01:57:17;4.90;;;4.50;;
10481;SDS011;5288;42.334;23.876;2023-09-19T01:59:50;6.10;;;4.07;;
10481;SDS011;5288;42.334;23.876;2023-09-19T02:02:23;7.47;;;4.60;;
10481;SDS011;5288;42.334;23.876;2023-09-19T02:04:51;4.83;;;4.37;;
10481;SDS011;5288;42.334;23.876;2023-09-19T02:07:18;5.57;;;5.07;;
10481;SDS011;5288;42.334;23.876;2023-09-19T02:09:46;5.10;;;4.63;;
10481;SDS011;5288;42.334;23.876;2023-09-19T02:12:13;5.80;;;4.67;;
10481;SDS011;5288;42.334;23.876;2023-09-19T02:14:40;5.40;;;4.47;;
10481;SDS011;5288;42.334;23.876;2023-09-19T02:17:07;6.33;;;4.63;;
10481;SDS011;5288;42.334;23.876;2023-09-19T02:19:38;6.07;;;4.80;;
10481;SDS011;5288;42.334;23.876;2023-09-19T02:22:06;5.30;;;4.77;;
10481;SDS011;5288;42.334;23.876;2023-09-19T02:24:35;5.17;;;4.50;;
10481;SDS011;5288;42.334;23.876;2023-09-19T02:27:03;6.43;;;4.77;;
10481;SDS011;5288;42.334;23.876;2023-09-19T02:29:30;6.57;;;4.90;;
10481;SDS011;5288;42.334;23.876;2023-09-19T02:31:59;5.00;;;4.50;;
10481;SDS011;5288;42.334;23.876;2023-09-19T02:34:26;8.43;;;5.20;;
10481;SDS011;5288;42.334;23.876;2023-09-19T02:36:55;6.53;;;5.93;;
10481;SDS011;5288;42.334;23.876;2023-09-19T02:39:22;11.93;;;5.10;;
10481;SDS011;5288;42.334;23.876;2023-09-19T02:41:49;5.57;;;4.63;;
10481;SDS011;5288;42.334;23.876;2023-09-19T02:44:17;5.97;;;5.00;;
10481;SDS011;5288;42.334;23.876;2023-09-19T02:46:45;5.57;;;5.03;;
10481;SDS011;5288;42.334;23.876;2023-09-19T02:49:12;5.70;;;4.37;;
10481;SDS011;5288;42.334;23.876;2023-09-19T02:51:39;4.70;;;4.30;;
10481;SDS011;5288;42.334;23.876;2023-09-19T02:54:08;5.00;;;4.50;;
10481;SDS011;5288;42.334;23.876;2023-09-19T02:56:36;7.87;;;4.67;;
10481;SDS011;5288;42.334;23.876;2023-09-19T02:59:03;8.10;;;5.30;;
10481;SDS011;5288;42.334;23.876;2023-09-19T03:01:31;4.70;;;4.30;;
10481;SDS011;5288;42.334;23.876;2023-09-19T03:03:59;5.20;;;4.70;;
10481;SDS011;5288;42.334;23.876;2023-09-19T03:06:26;5.23;;;4.73;;
10481;SDS011;5288;42.334;23.876;2023-09-19T03:08:53;5.23;;;4.50;;
10481;SDS011;5288;42.334;23.876;2023-09-19T03:11:23;6.00;;;4.83;;
10481;SDS011;5288;42.334;23.876;2023-09-19T03:13:50;4.70;;;4.20;;
10481;SDS011;5288;42.334;23.876;2023-09-19T03:16:18;7.23;;;4.37;;
10481;SDS011;5288;42.334;23.876;2023-09-19T03:18:47;5.03;;;4.53;;
10481;SDS011;5288;42.334;23.876;2023-09-19T03:21:14;4.70;;;4.00;;
10481;SDS011;5288;42.334;23.876;2023-09-19T03:23:42;6.03;;;4.43;;
10481;SDS011;5288;42.334;23.876;2023-09-19T03:26:11;7.90;;;4.40;;
10481;SDS011;5288;42.334;23.876;2023-09-19T03:28:42;6.00;;;4.70;;
10481;SDS011;5288;42.334;23.876;2023-09-19T03:31:11;5.23;;;4.40;;
10481;SDS011;5288;42.334;23.876;2023-09-19T03:33:38;5.53;;;4.73;;
10481;SDS011;5288;42.334;23.876;2023-09-19T03:36:05;7.37;;;4.40;;
10481;SDS011;5288;42.334;23.876;2023-09-19T03:38:32;6.07;;;5.20;;
10481;SDS011;5288;42.334;23.876;2023-09-19T03:41:00;5.57;;;4.43;;
10481;SDS011;5288;42.334;23.876;2023-09-19T03:43:27;5.20;;;4.70;;
10481;SDS011;5288;42.334;23.876;2023-09-19T03:45:56;7.63;;;5.73;;
10481;SDS011;5288;42.334;23.876;2023-09-19T03:48:23;7.33;;;5.80;;
10481;SDS011;5288;42.334;23.876;2023-09-19T03:50:50;6.27;;;4.73;;
10481;SDS011;5288;42.334;23.876;2023-09-19T03:53:17;5.63;;;4.67;;
10481;SDS011;5288;42.334;23.876;2023-09-19T03:55:45;6.00;;;5.40;;
10481;SDS011;5288;42.334;23.876;2023-09-19T03:58:12;6.90;;;4.80;;
10481;SDS011;5288;42.334;23.876;2023-09-19T04:00:39;5.77;;;4.77;;
10481;SDS011;5288;42.334;23.876;2023-09-19T04:03:08;8.13;;;4.67;;
10481;SDS011;5288;42.334;23.876;2023-09-19T04:05:44;7.50;;;5.53;;
10481;SDS011;5288;42.334;23.876;2023-09-19T04:08:11;6.13;;;5.10;;
10481;SDS011;5288;42.334;23.876;2023-09-19T04:10:40;5.57;;;5.07;;
10481;SDS011;5288;42.334;23.876;2023-09-19T04:13:08;5.80;;;4.77;;
10481;SDS011;5288;42.334;23.876;2023-09-19T04:15:36;7.73;;;6.40;;
10481;SDS011;5288;42.334;23.876;2023-09-19T04:18:03;5.27;;;4.50;;
10481;SDS011;5288;42.334;23.876;2023-09-19T04:20:32;5.93;;;5.30;;
10481;SDS011;5288;42.334;23.876;2023-09-19T04:22:59;14.53;;;5.57;;
10481;SDS011;5288;42.334;23.876;2023-09-19T04:25:26;5.33;;;4.70;;
10481;SDS011;5288;42.334;23.876;2023-09-19T04:27:54;5.27;;;4.67;;
10481;SDS011;5288;42.334;23.876;2023-09-19T04:30:21;6.27;;;4.77;;
10481;SDS011;5288;42.334;23.876;2023-09-19T04:32:48;5.33;;;4.40;;
10481;SDS011;5288;42.334;23.876;2023-09-19T04:35:16;4.87;;;4.47;;
10481;SDS011;5288;42.334;23.876;2023-09-19T04:37:45;9.03;;;5.53;;
10481;SDS011;5288;42.334;23.876;2023-09-19T04:40:12;6.27;;;4.47;;
10481;SDS011;5288;42.334;23.876;2023-09-19T04:42:42;5.10;;;4.47;;
10481;SDS011;5288;42.334;23.876;2023-09-19T04:45:11;6.67;;;4.63;;
10481;SDS011;5288;42.334;23.876;2023-09-19T04:47:38;5.53;;;4.70;;
10481;SDS011;5288;42.334;23.876;2023-09-19T04:50:06;8.20;;;4.53;;
10481;SDS011;5288;42.334;23.876;2023-09-19T04:52:39;6.47;;;4.43;;
10481;SDS011;5288;42.334;23.876;2023-09-19T04:55:11;8.40;;;4.53;;
10481;SDS011;5288;42.334;23.876;2023-09-19T04:57:42;5.67;;;4.47;;
10481;SDS011;5288;42.334;23.876;2023-09-19T05:00:11;8.57;;;5.13;;
10481;SDS011;5288;42.334;23.876;2023-09-19T05:02:40;7.83;;;5.07;;
10481;SDS011;5288;42.334;23.876;2023-09-19T05:05:07;8.07;;;4.80;;
10481;SDS011;5288;42.334;23.876;2023-09-19T05:07:35;8.57;;;5.00;;
10481;SDS011;5288;42.334;23.876;2023-09-19T05:10:02;6.67;;;4.93;;
10481;SDS011;5288;42.334;23.876;2023-09-19T05:12:33;5.40;;;4.60;;
10481;SDS011;5288;42.334;23.876;2023-09-19T05:15:01;5.40;;;4.90;;
10481;SDS011;5288;42.334;23.876;2023-09-19T05:17:29;5.60;;;5.00;;
10481;SDS011;5288;42.334;23.876;2023-09-19T05:19:56;6.63;;;4.70;;
10481;SDS011;5288;42.334;23.876;2023-09-19T05:22:26;5.40;;;4.70;;
10481;SDS011;5288;42.334;23.876;2023-09-19T05:24:54;4.60;;;4.20;;
10481;SDS011;5288;42.334;23.876;2023-09-19T05:27:21;7.43;;;5.30;;
10481;SDS011;5288;42.334;23.876;2023-09-19T05:29:49;7.50;;;4.60;;
10481;SDS011;5288;42.334;23.876;2023-09-19T05:32:18;6.47;;;4.97;;
10481;SDS011;5288;42.334;23.876;2023-09-19T05:34:46;6.50;;;5.07;;
10481;SDS011;5288;42.334;23.876;2023-09-19T05:37:13;5.63;;;4.53;;
10481;SDS011;5288;42.334;23.876;2023-09-19T05:39:41;6.60;;;5.57;;
10481;SDS011;5288;42.334;23.876;2023-09-19T05:42:08;5.33;;;4.70;;
10481;SDS011;5288;42.334;23.876;2023-09-19T05:44:36;6.40;;;5.40;;
10481;SDS011;5288;42.334;23.876;2023-09-19T05:47:04;7.30;;;5.47;;
10481;SDS011;5288;42.334;23.876;2023-09-19T05:49:34;5.97;;;5.43;;
10481;SDS011;5288;42.334;23.876;2023-09-19T05:52:03;7.77;;;5.37;;
10481;SDS011;5288;42.334;23.876;2023-09-19T05:54:31;8.63;;;5.87;;
10481;SDS011;5288;42.334;23.876;2023-09-19T05:56:59;6.10;;;5.37;;
10481;SDS011;5288;42.334;23.876;2023-09-19T05:59:26;6.10;;;5.60;;
10481;SDS011;5288;42.334;23.876;2023-09-19T06:01:53;6.30;;;5.70;;
10481;SDS011;5288;42.334;23.876;2023-09-19T06:04:22;6.67;;;5.47;;
10481;SDS011;5288;42.334;23.876;2023-09-19T06:06:50;6.90;;;6.17;;
10481;SDS011;5288;42.334;23.876;2023-09-19T06:09:17;7.50;;;6.40;;
10481;SDS011;5288;42.334;23.876;2023-09-19T06:11:45;6.77;;;6.00;;
10481;SDS011;5288;42.334;23.876;2023-09-19T06:14:12;9.73;;;6.43;;
10481;SDS011;5288;42.334;23.876;2023-09-19T06:16:39;7.10;;;6.40;;
10481;SDS011;5288;42.334;23.876;2023-09-19T06:19:07;6.80;;;5.67;;
10481;SDS011;5288;42.334;23.876;2023-09-19T06:21:35;6.57;;;5.80;;
10481;SDS011;5288;42.334;23.876;2023-09-19T06:24:02;6.93;;;5.30;;
10481;SDS011;5288;42.334;23.876;2023-09-19T06:26:30;6.13;;;5.50;;
10481;SDS011;5288;42.334;23.876;2023-09-19T06:28:57;6.73;;;5.87;;
10481;SDS011;5288;42.334;23.876;2023-09-19T06:31:25;6.50;;;5.30;;
10481;SDS011;5288;42.334;23.876;2023-09-19T06:33:52;6.77;;;5.90;;
10481;SDS011;5288;42.334;23.876;2023-09-19T06:36:19;8.63;;;5.70;;
10481;SDS011;5288;42.334;23.876;2023-09-19T06:38:48;7.50;;;5.77;;
10481;SDS011;5288;42.334;23.876;2023-09-19T06:41:16;5.83;;;5.23;;
10481;SDS011;5288;42.334;23.876;2023-09-19T06:43:43;8.53;;;5.47;;
10481;SDS011;5288;42.334;23.876;2023-09-19T06:46:10;9.07;;;5.50;;
10481;SDS011;5288;42.334;23.876;2023-09-19T06:48:38;7.43;;;5.07;;
10481;SDS011;5288;42.334;23.876;2023-09-19T06:51:06;10.00;;;5.97;;
10481;SDS011;5288;42.334;23.876;2023-09-19T06:53:35;9.20;;;5.63;;
10481;SDS011;5288;42.334;23.876;2023-09-19T06:56:03;9.83;;;5.70;;
10481;SDS011;5288;42.334;23.876;2023-09-19T06:58:31;7.83;;;5.80;;
10481;SDS011;5288;42.334;23.876;2023-09-19T07:00:58;7.20;;;5.40;;
10481;SDS011;5288;42.334;23.876;2023-09-19T07:03:25;7.10;;;5.17;;
10481;SDS011;5288;42.334;23.876;2023-09-19T07:05:54;6.27;;;5.60;;
10481;SDS011;5288;42.334;23.876;2023-09-19T07:08:21;6.10;;;5.50;;
10481;SDS011;5288;42.334;23.876;2023-09-19T07:10:48;7.07;;;5.70;;
10481;SDS011;5288;42.334;23.876;2023-09-19T07:13:19;7.17;;;5.23;;
10481;SDS011;5288;42.334;23.876;2023-09-19T07:15:46;13.90;;;5.93;;
10481;SDS011;5288;42.334;23.876;2023-09-19T07:18:15;9.27;;;5.37;;
10481;SDS011;5288;42.334;23.876;2023-09-19T07:20:43;7.43;;;5.37;;
10481;SDS011;5288;42.334;23.876;2023-09-19T07:23:14;7.90;;;5.30;;
10481;SDS011;5288;42.334;23.876;2023-09-19T07:25:43;24.70;;;8.53;;
10481;SDS011;5288;42.334;23.876;2023-09-19T07:28:11;7.53;;;5.07;;
10481;SDS011;5288;42.334;23.876;2023-09-19T07:30:40;6.17;;;5.27;;
10481;SDS011;5288;42.334;23.876;2023-09-19T07:33:07;6.43;;;4.50;;
10481;SDS011;5288;42.334;23.876;2023-09-19T07:35:36;6.60;;;5.03;;
10481;SDS011;5288;42.334;23.876;2023-09-19T07:38:05;6.03;;;4.80;;
10481;SDS011;5288;42.334;23.876;2023-09-19T07:40:33;7.30;;;5.30;;
10481;SDS011;5288;42.334;23.876;2023-09-19T07:43:00;9.10;;;4.83;;
10481;SDS011;5288;42.334;23.876;2023-09-19T07:45:29;8.00;;;4.87;;
10481;SDS011;5288;42.334;23.876;2023-09-19T07:47:58;5.37;;;4.87;;
10481;SDS011;5288;42.334;23.876;2023-09-19T07:50:29;6.47;;;4.60;;
10481;SDS011;5288;42.334;23.876;2023-09-19T07:52:57;7.20;;;5.00;;
10481;SDS011;5288;42.334;23.876;2023-09-19T07:55:24;9.87;;;4.90;;
10481;SDS011;5288;42.334;23.876;2023-09-19T07:57:51;7.40;;;4.63;;
10481;SDS011;5288;42.334;23.876;2023-09-19T08:00:18;7.13;;;5.20;;
10481;SDS011;5288;42.334;23.876;2023-09-19T08:02:46;6.47;;;5.77;;
10481;SDS011;5288;42.334;23.876;2023-09-19T08:05:15;5.20;;;4.70;;
10481;SDS011;5288;42.334;23.876;2023-09-19T08:07:43;7.53;;;4.70;;
10481;SDS011;5288;42.334;23.876;2023-09-19T08:10:13;6.97;;;5.00;;
10481;SDS011;5288;42.334;23.876;2023-09-19T08:12:41;8.57;;;5.43;;
10481;SDS011;5288;42.334;23.876;2023-09-19T08:15:12;10.30;;;5.37;;
10481;SDS011;5288;42.334;23.876;2023-09-19T08:17:40;9.47;;;6.70;;
10481;SDS011;5288;42.334;23.876;2023-09-19T08:20:07;17.87;;;12.37;;
10481;SDS011;5288;42.334;23.876;2023-09-19T08:22:44;5.73;;;4.97;;
10481;SDS011;5288;42.334;23.876;2023-09-19T08:25:14;6.63;;;4.70;;
10481;SDS011;5288;42.334;23.876;2023-09-19T08:27:43;5.27;;;4.70;;
10481;SDS011;5288;42.334;23.876;2023-09-19T08:30:13;8.20;;;5.30;;
10481;SDS011;5288;42.334;23.876;2023-09-19T08:32:41;6.23;;;4.50;;
10481;SDS011;5288;42.334;23.876;2023-09-19T08:35:09;5.80;;;4.60;;
10481;SDS011;5288;42.334;23.876;2023-09-19T08:37:36;4.70;;;4.30;;
10481;SDS011;5288;42.334;23.876;2023-09-19T08:40:05;7.40;;;4.03;;
10481;SDS011;5288;42.334;23.876;2023-09-19T08:42:46;5.20;;;4.13;;
10481;SDS011;5288;42.334;23.876;2023-09-19T08:45:15;7.20;;;4.40;;
10481;SDS011;5288;42.334;23.876;2023-09-19T08:47:45;5.80;;;4.33;;
10481;SDS011;5288;42.334;23.876;2023-09-19T08:50:15;5.20;;;4.20;;
10481;SDS011;5288;42.334;23.876;2023-09-19T08:52:46;7.83;;;4.10;;
10481;SDS011;5288;42.334;23.876;2023-09-19T08:55:20;7.13;;;4.80;;
10481;SDS011;5288;42.334;23.876;2023-09-19T08:57:55;6.20;;;4.10;;
10481;SDS011;5288;42.334;23.876;2023-09-19T09:00:27;4.63;;;4.20;;
10481;SDS011;5288;42.334;23.876;2023-09-19T09:02:55;6.90;;;3.93;;
10481;SDS011;5288;42.334;23.876;2023-09-19T09:05:24;6.67;;;3.87;;
10481;SDS011;5288;42.334;23.876;2023-09-19T09:07:52;9.47;;;3.97;;
10481;SDS011;5288;42.334;23.876;2023-09-19T09:10:22;4.07;;;3.67;;
10481;SDS011;5288;42.334;23.876;2023-09-19T09:12:51;5.13;;;4.37;;
10481;SDS011;5288;42.334;23.876;2023-09-19T09:15:19;6.07;;;3.80;;
10481;SDS011;5288;42.334;23.876;2023-09-19T09:17:48;6.00;;;4.00;;
10481;SDS011;5288;42.334;23.876;2023-09-19T09:20:18;4.43;;;3.90;;
10481;SDS011;5288;42.334;23.876;2023-09-19T09:22:50;4.77;;;4.27;;
10481;SDS011;5288;42.334;23.876;2023-09-19T09:25:19;6.63;;;3.73;;
10481;SDS011;5288;42.334;23.876;2023-09-19T09:27:59;3.87;;;3.57;;
10481;SDS011;5288;42.334;23.876;2023-09-19T09:30:33;5.30;;;3.63;;
10481;SDS011;5288;42.334;23.876;2023-09-19T09:33:08;5.50;;;4.20;;
10481;SDS011;5288;42.334;23.876;2023-09-19T09:35:36;3.60;;;3.30;;
10481;SDS011;5288;42.334;23.876;2023-09-19T09:38:07;5.30;;;3.50;;
10481;SDS011;5288;42.334;23.876;2023-09-19T09:43:29;5.47;;;3.70;;
10481;SDS011;5288;42.334;23.876;2023-09-19T09:46:07;4.13;;;3.73;;
10481;SDS011;5288;42.334;23.876;2023-09-19T09:48:57;5.00;;;3.50;;
10481;SDS011;5288;42.334;23.876;2023-09-19T09:51:41;4.40;;;3.87;;
10481;SDS011;5288;42.334;23.876;2023-09-19T09:54:12;5.23;;;3.90;;
10481;SDS011;5288;42.334;23.876;2023-09-19T09:56:56;9.63;;;4.57;;
10481;SDS011;5288;42.334;23.876;2023-09-19T10:02:25;4.00;;;3.60;;
10481;SDS011;5288;42.334;23.876;2023-09-19T10:04:58;10.13;;;4.07;;
10481;SDS011;5288;42.334;23.876;2023-09-19T10:07:34;4.23;;;3.33;;
10481;SDS011;5288;42.334;23.876;2023-09-19T10:10:04;6.03;;;4.03;;
10481;SDS011;5288;42.334;23.876;2023-09-19T10:12:43;4.80;;;3.73;;
10481;SDS011;5288;42.334;23.876;2023-09-19T10:15:17;5.93;;;3.80;;
10481;SDS011;5288;42.334;23.876;2023-09-19T10:17:46;7.00;;;3.50;;
10481;SDS011;5288;42.334;23.876;2023-09-19T10:20:14;4.20;;;3.63;;
10481;SDS011;5288;42.334;23.876;2023-09-19T10:23:01;4.80;;;4.17;;
10481;SDS011;5288;42.334;23.876;2023-09-19T10:25:35;6.37;;;4.27;;
10481;SDS011;5288;42.334;23.876;2023-09-19T10:28:05;3.77;;;3.47;;
10481;SDS011;5288;42.334;23.876;2023-09-19T10:30:38;3.67;;;3.37;;
10481;SDS011;5288;42.334;23.876;2023-09-19T10:33:10;4.67;;;4.00;;
10481;SDS011;5288;42.334;23.876;2023-09-19T10:35:38;4.97;;;3.83;;
10481;SDS011;5288;42.334;23.876;2023-09-19T10:38:09;4.83;;;3.80;;
10481;SDS011;5288;42.334;23.876;2023-09-19T10:40:37;6.40;;;3.70;;
10481;SDS011;5288;42.334;23.876;2023-09-19T10:43:11;6.23;;;3.90;;
10481;SDS011;5288;42.334;23.876;2023-09-19T10:45:41;4.60;;;3.63;;
10481;SDS011;5288;42.334;23.876;2023-09-19T10:48:12;3.90;;;3.50;;
10481;SDS011;5288;42.334;23.876;2023-09-19T10:50:43;5.33;;;3.73;;
10481;SDS011;5288;42.334;23.876;2023-09-19T10:53:12;9.60;;;4.57;;
10481;SDS011;5288;42.334;23.876;2023-09-19T10:55:40;4.07;;;3.77;;
10481;SDS011;5288;42.334;23.876;2023-09-19T10:58:24;4.63;;;3.70;;
10481;SDS011;5288;42.334;23.876;2023-09-19T11:00:57;5.40;;;3.60;;
10481;SDS011;5288;42.334;23.876;2023-09-19T11:03:30;3.77;;;3.47;;
10481;SDS011;5288;42.334;23.876;2023-09-19T11:06:09;4.10;;;3.63;;
10481;SDS011;5288;42.334;23.876;2023-09-19T11:11:40;6.97;;;4.50;;
10481;SDS011;5288;42.334;23.876;2023-09-19T11:20:24;5.60;;;3.63;;
10481;SDS011;5288;42.334;23.876;2023-09-19T11:23:17;3.95;;;3.60;;
10481;SDS011;5288;42.334;23.876;2023-09-19T11:25:54;4.43;;;3.50;;
10481;SDS011;5288;42.334;23.876;2023-09-19T11:28:31;3.88;;;3.50;;
10481;SDS011;5288;42.334;23.876;2023-09-19T11:40:27;5.47;;;3.30;;
10481;SDS011;5288;42.334;23.876;2023-09-19T11:42:55;4.97;;;3.95;;
10481;SDS011;5288;42.334;23.876;2023-09-19T11:48:30;4.93;;;3.53;;
10481;SDS011;5288;42.334;23.876;2023-09-19T11:51:00;4.28;;;3.35;;
10481;SDS011;5288;42.334;23.876;2023-09-19T11:53:32;4.55;;;3.75;;
10481;SDS011;5288;42.334;23.876;2023-09-19T11:56:01;4.53;;;3.33;;
10481;SDS011;5288;42.334;23.876;2023-09-19T11:58:35;4.55;;;3.33;;
10481;SDS011;5288;42.334;23.876;2023-09-19T12:01:04;4.18;;;3.72;;
10481;SDS011;5288;42.334;23.876;2023-09-19T12:03:38;7.85;;;3.65;;
10481;SDS011;5288;42.334;23.876;2023-09-19T12:06:14;11.45;;;4.68;;
10481;SDS011;5288;42.334;23.876;2023-09-19T12:08:43;4.60;;;3.90;;
10481;SDS011;5288;42.334;23.876;2023-09-19T12:11:12;6.53;;;4.05;;
10481;SDS011;5288;42.334;23.876;2023-09-19T12:13:41;9.27;;;4.20;;
10481;SDS011;5288;42.334;23.876;2023-09-19T12:16:11;4.60;;;3.40;;
10481;SDS011;5288;42.334;23.876;2023-09-19T12:18:41;6.65;;;3.95;;
10481;SDS011;5288;42.334;23.876;2023-09-19T12:23:58;3.90;;;3.60;;
10481;SDS011;5288;42.334;23.876;2023-09-19T12:26:26;4.68;;;3.53;;
10481;SDS011;5288;42.334;23.876;2023-09-19T12:28:55;7.32;;;3.75;;
10481;SDS011;5288;42.334;23.876;2023-09-19T12:31:22;3.85;;;3.22;;
10481;SDS011;5288;42.334;23.876;2023-09-19T12:33:54;3.85;;;3.40;;
10481;SDS011;5288;42.334;23.876;2023-09-19T12:36:22;3.95;;;3.53;;
10481;SDS011;5288;42.334;23.876;2023-09-19T12:38:56;4.53;;;3.28;;
10481;SDS011;5288;42.334;23.876;2023-09-19T12:41:24;4.60;;;3.63;;
10481;SDS011;5288;42.334;23.876;2023-09-19T12:43:52;7.82;;;3.67;;
10481;SDS011;5288;42.334;23.876;2023-09-19T12:46:20;3.97;;;3.45;;
10481;SDS011;5288;42.334;23.876;2023-09-19T12:48:51;4.40;;;3.78;;
10481;SDS011;5288;42.334;23.876;2023-09-19T12:51:42;3.60;;;3.30;;
10481;SDS011;5288;42.334;23.876;2023-09-19T12:54:11;5.28;;;4.18;;
10481;SDS011;5288;42.334;23.876;2023-09-19T12:56:40;4.70;;;3.90;;
10481;SDS011;5288;42.334;23.876;2023-09-19T12:59:10;5.40;;;3.83;;
10481;SDS011;5288;42.334;23.876;2023-09-19T13:01:39;4.78;;;3.65;;
10481;SDS011;5288;42.334;23.876;2023-09-19T13:04:10;4.82;;;3.78;;
10481;SDS011;5288;42.334;23.876;2023-09-19T13:06:40;5.35;;;3.55;;
10481;SDS011;5288;42.334;23.876;2023-09-19T13:09:09;7.07;;;4.22;;
10481;SDS011;5288;42.334;23.876;2023-09-19T13:11:38;7.07;;;4.18;;
10481;SDS011;5288;42.334;23.876;2023-09-19T13:14:14;4.10;;;3.60;;
10481;SDS011;5288;42.334;23.876;2023-09-19T13:16:56;6.25;;;3.35;;
10481;SDS011;5288;42.334;23.876;2023-09-19T13:19:34;5.93;;;4.53;;
10481;SDS011;5288;42.334;23.876;2023-09-19T13:22:03;4.65;;;3.90;;
10481;SDS011;5288;42.334;23.876;2023-09-19T13:24:31;5.90;;;3.75;;
10481;SDS011;5288;42.334;23.876;2023-09-19T13:27:02;9.90;;;4.18;;
10481;SDS011;5288;42.334;23.876;2023-09-19T13:29:30;4.50;;;3.63;;
10481;SDS011;5288;42.334;23.876;2023-09-19T13:31:57;6.90;;;4.60;;
10481;SDS011;5288;42.334;23.876;2023-09-19T13:34:24;4.40;;;4.00;;
10481;SDS011;5288;42.334;23.876;2023-09-19T13:36:51;5.90;;;4.07;;
10481;SDS011;5288;42.334;23.876;2023-09-19T13:39:19;6.22;;;4.00;;
10481;SDS011;5288;42.334;23.876;2023-09-19T13:41:49;4.50;;;4.10;;
10481;SDS011;5288;42.334;23.876;2023-09-19T13:44:17;6.55;;;4.25;;
10481;SDS011;5288;42.334;23.876;2023-09-19T13:46:45;6.22;;;3.67;;
10481;SDS011;5288;42.334;23.876;2023-09-19T13:49:12;10.53;;;4.90;;
10481;SDS011;5288;42.334;23.876;2023-09-19T13:51:39;5.90;;;4.10;;
10481;SDS011;5288;42.334;23.876;2023-09-19T13:54:08;9.77;;;4.80;;
10481;SDS011;5288;42.334;23.876;2023-09-19T13:56:37;7.57;;;3.92;;
10481;SDS011;5288;42.334;23.876;2023-09-19T13:59:04;7.68;;;5.38;;
10481;SDS011;5288;42.334;23.876;2023-09-19T14:01:33;4.82;;;3.80;;
10481;SDS011;5288;42.334;23.876;2023-09-19T14:04:00;4.70;;;4.30;;
10481;SDS011;5288;42.334;23.876;2023-09-19T14:06:27;7.78;;;4.22;;
10481;SDS011;5288;42.334;23.876;2023-09-19T14:08:54;4.68;;;3.83;;
10481;SDS011;5288;42.334;23.876;2023-09-19T14:11:21;5.72;;;4.15;;
10481;SDS011;5288;42.334;23.876;2023-09-19T14:13:48;5.75;;;3.58;;
10481;SDS011;5288;42.334;23.876;2023-09-19T14:16:17;8.05;;;3.92;;
10481;SDS011;5288;42.334;23.876;2023-09-19T14:18:46;5.75;;;3.72;;
10481;SDS011;5288;42.334;23.876;2023-09-19T14:21:13;5.63;;;4.07;;
10481;SDS011;5288;42.334;23.876;2023-09-19T14:23:40;4.88;;;3.70;;
10481;SDS011;5288;42.334;23.876;2023-09-19T14:26:08;4.57;;;3.70;;
10481;SDS011;5288;42.334;23.876;2023-09-19T14:28:35;4.97;;;3.85;;
10481;SDS011;5288;42.334;23.876;2023-09-19T14:31:04;6.28;;;4.03;;
10481;SDS011;5288;42.334;23.876;2023-09-19T14:33:32;4.25;;;3.72;;
10481;SDS011;5288;42.334;23.876;2023-09-19T14:36:03;6.35;;;4.07;;
10481;SDS011;5288;42.334;23.876;2023-09-19T14:38:32;9.10;;;4.10;;
10481;SDS011;5288;42.334;23.876;2023-09-19T14:41:00;7.60;;;4.65;;
10481;SDS011;5288;42.334;23.876;2023-09-19T14:43:28;4.80;;;3.80;;
10481;SDS011;5288;42.334;23.876;2023-09-19T14:45:55;5.80;;;4.20;;
10481;SDS011;5288;42.334;23.876;2023-09-19T14:48:23;6.28;;;4.15;;
10481;SDS011;5288;42.334;23.876;2023-09-19T14:50:51;7.35;;;5.10;;
10481;SDS011;5288;42.334;23.876;2023-09-19T14:53:20;4.85;;;4.32;;
10481;SDS011;5288;42.334;23.876;2023-09-19T14:55:47;4.82;;;4.30;;
10481;SDS011;5288;42.334;23.876;2023-09-19T14:58:17;7.95;;;4.10;;
10481;SDS011;5288;42.334;23.876;2023-09-19T15:00:44;6.53;;;3.80;;
10481;SDS011;5288;42.334;23.876;2023-09-19T15:03:11;5.30;;;4.43;;
10481;SDS011;5288;42.334;23.876;2023-09-19T15:05:39;4.03;;;3.60;;
10481;SDS011;5288;42.334;23.876;2023-09-19T15:08:06;4.30;;;3.53;;
10481;SDS011;5288;42.334;23.876;2023-09-19T15:10:34;8.60;;;4.20;;
10481;SDS011;5288;42.334;23.876;2023-09-19T15:13:01;5.10;;;3.60;;
10481;SDS011;5288;42.334;23.876;2023-09-19T15:15:31;4.13;;;3.73;;
10481;SDS011;5288;42.334;23.876;2023-09-19T15:17:58;6.63;;;4.10;;
10481;SDS011;5288;42.334;23.876;2023-09-19T15:20:25;7.47;;;4.00;;
10481;SDS011;5288;42.334;23.876;2023-09-19T15:22:52;6.50;;;4.17;;
10481;SDS011;5288;42.334;23.876;2023-09-19T15:25:19;5.63;;;3.70;;
10481;SDS011;5288;42.334;23.876;2023-09-19T15:27:47;5.20;;;4.30;;
10481;SDS011;5288;42.334;23.876;2023-09-19T15:30:15;6.50;;;4.07;;
10481;SDS011;5288;42.334;23.876;2023-09-19T15:32:42;7.50;;;3.93;;